Time;durP1;ratioP1;P1;durP2;ratioP2;P2;SDS_P1;SDS_P2;PMS_P1;PMS_P2;Temp;Humidity;BMP_temperature;BMP_pressure;BME280_temperature;BME280_humidity;BME280_pressure;Samples;Min_cycle;Max_cycle;Signal;HPM_P1;HPM_P2
2022/09/12 00:00:09;;;;;;;0.00;0.00;;;13.40;99.90;;;;;;5032336;28;20201;-66
2022/09/12 00:02:35;;;;;;;0.10;0.10;;;13.40;99.90;;;;;;5032469;28;20286;-66
2022/09/12 00:05:00;;;;;;;0.00;0.00;;;13.40;99.90;;;;;;5032168;28;20174;-66
2022/09/12 00:07:26;;;;;;;0.00;0.00;;;13.40;99.90;;;;;;5044620;28;20277;-66
2022/09/12 00:09:51;;;;;;;0.08;0.08;;;13.40;99.90;;;;;;5042883;28;20178;-66
2022/09/12 00:12:17;;;;;;;0.17;0.17;;;13.40;99.90;;;;;;5050253;28;20705;-66
2022/09/12 00:14:42;;;;;;;0.00;0.00;;;13.30;99.90;;;;;;5041360;28;20174;-66
2022/09/12 00:17:08;;;;;;;0.15;0.15;;;13.40;99.90;;;;;;5049422;28;20204;-66
2022/09/12 00:19:34;;;;;;;0.03;0.03;;;13.30;99.90;;;;;;5051512;28;20543;-66
2022/09/12 00:21:59;;;;;;;0.00;0.00;;;13.30;99.90;;;;;;5050055;28;20350;-66
2022/09/12 00:24:25;;;;;;;0.00;0.00;;;13.30;99.90;;;;;;5049926;28;20543;-66
2022/09/12 00:26:50;;;;;;;0.10;0.10;;;13.40;99.90;;;;;;5033617;28;20225;-66
2022/09/12 00:29:18;;;;;;;0.00;0.00;;;13.40;99.90;;;;;;5040193;28;20182;-66
2022/09/12 00:31:44;;;;;;;0.00;0.00;;;13.40;99.90;;;;;;5039601;28;20183;-66
2022/09/12 00:34:10;;;;;;;0.00;0.00;;;13.40;99.90;;;;;;5047040;28;20174;-67
2022/09/12 00:36:37;;;;;;;0.00;0.00;;;13.40;99.90;;;;;;5045646;28;20223;-67
2022/09/12 00:39:04;;;;;;;0.10;0.10;;;13.40;99.90;;;;;;5049683;28;20174;-66
2022/09/12 00:41:35;;;;;;;0.00;0.00;;;13.30;99.90;;;;;;5046573;28;20188;-67
2022/09/12 00:44:23;;;;;;;0.10;0.10;;;13.30;99.90;;;;;;5037372;28;20201;-67
2022/09/12 00:46:59;;;;;;;0.10;0.10;;;13.30;99.90;;;;;;5046958;28;20217;-66
2022/09/12 00:49:47;;;;;;;0.00;0.00;;;13.20;99.90;;;;;;5035173;28;20174;-67
2022/09/12 00:52:42;;;;;;;0.00;0.00;;;13.20;99.90;;;;;;5047226;28;20182;-66
2022/09/12 00:55:25;;;;;;;0.00;0.00;;;13.10;99.90;;;;;;5044203;28;20262;-66
2022/09/12 00:57:56;;;;;;;0.13;0.13;;;13.10;99.90;;;;;;5050018;28;20673;-66
2022/09/12 01:00:24;;;;;;;0.00;0.00;;;13.00;99.90;;;;;;5051102;28;20181;-66
2022/09/12 01:03:00;;;;;;;0.00;0.00;;;13.00;99.90;;;;;;5043216;28;20225;-66
2022/09/12 01:05:28;;;;;;;0.00;0.00;;;12.90;99.90;;;;;;5037448;28;20205;-66
2022/09/12 01:07:55;;;;;;;0.00;0.00;;;12.90;99.90;;;;;;5046610;28;20186;-66
2022/09/12 01:10:22;;;;;;;0.00;0.00;;;12.90;99.90;;;;;;5032294;28;20186;-66
2022/09/12 01:12:48;;;;;;;0.10;0.10;;;12.80;99.90;;;;;;5037547;28;20185;-66
2022/09/12 01:15:13;;;;;;;0.00;0.00;;;12.90;99.90;;;;;;5036321;28;20200;-66
2022/09/12 01:18:06;;;;;;;0.00;0.00;;;12.80;99.90;;;;;;5047543;28;20174;-66
2022/09/12 01:21:00;;;;;;;0.00;0.00;;;12.80;99.90;;;;;;5019532;28;20189;-66
2022/09/12 01:23:30;;;;;;;0.00;0.00;;;12.80;99.90;;;;;;5033361;28;20186;-66
2022/09/12 01:26:29;;;;;;;0.00;0.00;;;12.80;99.90;;;;;;5031348;28;20257;-66
2022/09/12 01:29:06;;;;;;;0.00;0.00;;;12.70;99.90;;;;;;5027552;28;20176;-66
2022/09/12 01:31:47;;;;;;;0.00;0.00;;;12.70;99.90;;;;;;5038852;28;20197;-66
2022/09/12 01:34:45;;;;;;;0.00;0.00;;;12.70;99.90;;;;;;5034858;28;20178;-66
2022/09/12 01:37:30;;;;;;;0.15;0.13;;;12.70;99.90;;;;;;5023223;28;20198;-66
2022/09/12 01:40:20;;;;;;;0.00;0.00;;;12.70;99.90;;;;;;5049699;28;20169;-66
2022/09/12 01:42:57;;;;;;;0.00;0.00;;;12.70;99.90;;;;;;5041491;28;20208;-66
2022/09/12 01:45:44;;;;;;;0.00;0.00;;;12.70;99.90;;;;;;5049722;28;20201;-66
2022/09/12 01:48:20;;;;;;;0.00;0.00;;;12.70;99.90;;;;;;5037568;28;20280;-66
2022/09/12 01:50:51;;;;;;;0.00;0.00;;;12.70;99.90;;;;;;5033660;28;20637;-66
2022/09/12 01:53:27;;;;;;;0.00;0.00;;;12.70;99.90;;;;;;5036469;28;20181;-66
2022/09/12 01:56:05;;;;;;;0.08;0.08;;;12.70;99.90;;;;;;5041137;28;20205;-66
2022/09/12 01:58:54;;;;;;;0.10;0.10;;;12.70;99.90;;;;;;5045257;28;20170;-66
2022/09/12 02:02:02;;;;;;;0.00;0.00;;;12.80;99.90;;;;;;5045735;28;20327;-67
2022/09/12 02:04:51;;;;;;;0.00;0.00;;;12.70;99.90;;;;;;5050722;28;20205;-67
2022/09/12 02:07:22;;;;;;;0.17;0.17;;;12.70;99.90;;;;;;5049651;28;20212;-67
2022/09/12 02:10:03;;;;;;;0.00;0.00;;;12.70;99.90;;;;;;5035263;28;20241;-67
2022/09/12 02:12:34;;;;;;;0.00;0.00;;;12.60;99.90;;;;;;5038129;28;20196;-66
2022/09/12 02:15:06;;;;;;;0.32;0.30;;;12.60;99.90;;;;;;5034271;28;20228;-66
2022/09/12 02:17:37;;;;;;;0.00;0.00;;;12.50;99.90;;;;;;5034133;28;20626;-67
2022/09/12 02:20:16;;;;;;;0.00;0.00;;;12.50;99.90;;;;;;5042029;28;20182;-66
2022/09/12 02:22:44;;;;;;;0.10;0.10;;;12.40;99.90;;;;;;5036702;28;20248;-67
2022/09/12 02:25:13;;;;;;;0.00;0.00;;;12.30;99.90;;;;;;5037375;28;20236;-67
2022/09/12 02:28:10;;;;;;;0.00;0.00;;;12.30;99.90;;;;;;5044218;28;20185;-67
2022/09/12 02:30:43;;;;;;;0.00;0.00;;;12.30;99.90;;;;;;5043773;28;20247;-67
2022/09/12 02:33:22;;;;;;;0.00;0.00;;;12.20;99.90;;;;;;5035906;28;20602;-67
2022/09/12 02:36:00;;;;;;;0.00;0.00;;;12.20;99.90;;;;;;5023947;28;20190;-67
2022/09/12 02:38:39;;;;;;;0.00;0.00;;;12.20;99.90;;;;;;5042467;28;20196;-67
2022/09/12 02:41:06;;;;;;;0.00;0.00;;;12.20;99.90;;;;;;5033199;28;20212;-67
2022/09/12 02:43:31;;;;;;;0.10;0.05;;;12.20;99.90;;;;;;5037964;28;20170;-67
2022/09/12 02:45:57;;;;;;;0.25;0.25;;;12.20;99.90;;;;;;5050003;28;20274;-67
2022/09/12 02:48:30;;;;;;;0.00;0.00;;;12.20;99.90;;;;;;5041915;28;20217;-67
2022/09/12 02:50:56;;;;;;;0.00;0.00;;;12.30;99.90;;;;;;5046107;28;20636;-67
2022/09/12 02:53:22;;;;;;;0.00;0.00;;;12.30;99.90;;;;;;5035053;28;20174;-67
2022/09/12 02:55:49;;;;;;;0.00;0.00;;;12.30;99.90;;;;;;5039455;28;20185;-67
2022/09/12 02:58:18;;;;;;;0.05;0.05;;;12.30;99.90;;;;;;5050623;28;20261;-66
2022/09/12 03:01:11;;;;;;;0.00;0.00;;;12.30;99.90;;;;;;5047198;28;20283;-66
2022/09/12 03:04:05;;;;;;;0.00;0.00;;;12.30;99.90;;;;;;5046456;28;20249;-66
2022/09/12 03:06:50;;;;;;;0.00;0.00;;;12.20;99.90;;;;;;5034460;28;20713;-66
2022/09/12 03:09:32;;;;;;;0.00;0.00;;;12.20;99.90;;;;;;5046107;28;20181;-66
2022/09/12 03:12:01;;;;;;;0.13;0.13;;;12.20;99.90;;;;;;5038885;28;20256;-66
2022/09/12 03:14:46;;;;;;;0.00;0.00;;;12.20;99.90;;;;;;5033819;28;20270;-66
2022/09/12 03:17:26;;;;;;;0.20;0.20;;;12.10;99.90;;;;;;5048684;28;20779;-66
2022/09/12 03:19:56;;;;;;;0.10;0.10;;;12.10;99.90;;;;;;5043212;28;20293;-66
2022/09/12 03:22:29;;;;;;;0.00;0.00;;;12.10;99.90;;;;;;5048715;28;20227;-66
2022/09/12 03:25:16;;;;;;;0.00;0.00;;;12.10;99.90;;;;;;5033952;28;20175;-66
2022/09/12 03:28:08;;;;;;;0.00;0.00;;;12.10;99.90;;;;;;5034835;28;20201;-66
2022/09/12 03:30:45;;;;;;;0.00;0.00;;;12.10;99.90;;;;;;5038120;28;20173;-66
2022/09/12 03:33:19;;;;;;;0.03;0.03;;;12.10;99.90;;;;;;5040664;28;20268;-66
2022/09/12 03:35:46;;;;;;;0.00;0.00;;;12.10;99.90;;;;;;5032735;28;20190;-66
2022/09/12 03:38:12;;;;;;;0.28;0.28;;;12.10;99.90;;;;;;5048810;28;20192;-66
2022/09/12 03:40:38;;;;;;;0.05;0.05;;;12.10;99.90;;;;;;5042962;28;20677;-65
2022/09/12 03:43:05;;;;;;;0.10;0.10;;;12.10;99.90;;;;;;5033597;28;20261;-65
2022/09/12 03:45:30;;;;;;;0.00;0.00;;;12.10;99.90;;;;;;5033531;28;20606;-64
2022/09/12 03:47:57;;;;;;;0.10;0.10;;;12.10;99.90;;;;;;5033209;28;20244;-65
2022/09/12 03:50:22;;;;;;;0.00;0.00;;;12.10;99.90;;;;;;5046566;28;20264;-64
2022/09/12 03:52:48;;;;;;;0.00;0.00;;;12.10;99.90;;;;;;5036917;28;20708;-63
2022/09/12 03:55:14;;;;;;;0.00;0.00;;;12.20;99.90;;;;;;5033351;28;20208;-64
2022/09/12 03:57:39;;;;;;;0.00;0.00;;;12.10;99.90;;;;;;5032359;28;20178;-64
2022/09/12 04:00:07;;;;;;;0.00;0.00;;;12.10;99.90;;;;;;5034944;28;20182;-65
2022/09/12 04:02:33;;;;;;;0.00;0.00;;;12.10;99.90;;;;;;5031946;28;20236;-64
2022/09/12 04:04:59;;;;;;;0.00;0.00;;;12.10;99.90;;;;;;5035925;28;20205;-64
2022/09/12 04:07:25;;;;;;;0.00;0.00;;;12.10;99.90;;;;;;5037312;28;20228;-65
2022/09/12 04:09:51;;;;;;;0.00;0.00;;;12.10;99.90;;;;;;5047007;28;20189;-65
2022/09/12 04:12:16;;;;;;;0.00;0.00;;;12.10;99.90;;;;;;5044683;28;20189;-67
2022/09/12 04:14:42;;;;;;;0.00;0.00;;;12.10;99.90;;;;;;5049091;28;20182;-70
2022/09/12 04:17:07;;;;;;;0.15;0.15;;;12.10;99.90;;;;;;5041678;28;20265;-67
2022/09/12 04:19:33;;;;;;;0.05;0.05;;;12.00;99.90;;;;;;5039520;28;20177;-68
2022/09/12 04:22:00;;;;;;;0.00;0.00;;;12.00;99.90;;;;;;5043217;28;20182;-66
2022/09/12 04:24:25;;;;;;;0.20;0.20;;;12.00;99.90;;;;;;5029181;28;20188;-68
2022/09/12 04:26:51;;;;;;;0.00;0.00;;;12.00;99.90;;;;;;5031887;28;20213;-70
2022/09/12 04:29:16;;;;;;;0.03;0.03;;;12.00;99.90;;;;;;5032068;28;20526;-67
2022/09/12 04:31:42;;;;;;;0.60;0.60;;;12.00;99.90;;;;;;5038242;28;20185;-69
2022/09/12 04:34:07;;;;;;;0.00;0.00;;;11.90;99.90;;;;;;5051884;28;20267;-66
2022/09/12 04:36:33;;;;;;;0.00;0.00;;;11.90;99.90;;;;;;5038959;28;20178;-65
2022/09/12 04:39:00;;;;;;;0.00;0.00;;;11.90;99.90;;;;;;5031951;28;20605;-65
2022/09/12 04:41:31;;;;;;;0.00;0.00;;;11.90;99.90;;;;;;5048777;28;20209;-66
2022/09/12 04:44:03;;;;;;;0.00;0.00;;;11.90;99.90;;;;;;5051660;28;20184;-65
2022/09/12 04:46:31;;;;;;;0.00;0.00;;;11.90;99.90;;;;;;5036595;28;20214;-66
2022/09/12 04:48:57;;;;;;;0.00;0.00;;;11.90;99.90;;;;;;5051304;28;20260;-66
2022/09/12 04:51:27;;;;;;;0.00;0.00;;;11.90;99.90;;;;;;5040807;28;20272;-66
2022/09/12 04:53:56;;;;;;;0.20;0.20;;;11.90;99.90;;;;;;5051439;28;20652;-66
2022/09/12 04:56:22;;;;;;;0.25;0.25;;;11.90;99.90;;;;;;5051619;28;20519;-66
2022/09/12 04:58:48;;;;;;;0.03;0.03;;;11.90;99.90;;;;;;5051350;28;20180;-66
2022/09/12 05:01:16;;;;;;;0.10;0.10;;;11.90;99.90;;;;;;5052315;28;20181;-66
2022/09/12 05:03:43;;;;;;;0.00;0.00;;;11.90;99.90;;;;;;5055325;28;20228;-66
2022/09/12 05:06:11;;;;;;;0.00;0.00;;;11.80;99.90;;;;;;5055614;28;20213;-66
2022/09/12 05:08:37;;;;;;;0.00;0.00;;;11.80;99.90;;;;;;5054219;28;20200;-66
2022/09/12 05:11:09;;;;;;;0.47;0.08;;;11.80;99.90;;;;;;5040869;28;20891;-66
2022/09/12 05:13:34;;;;;;;0.00;0.00;;;11.80;99.90;;;;;;5035604;28;20231;-66
2022/09/12 05:16:02;;;;;;;0.10;0.10;;;11.80;99.90;;;;;;5035700;28;20174;-66
2022/09/12 05:18:29;;;;;;;0.00;0.00;;;11.80;99.90;;;;;;5022005;28;20241;-66
2022/09/12 05:20:58;;;;;;;0.00;0.00;;;11.80;99.90;;;;;;5015680;28;20645;-66
2022/09/12 05:23:23;;;;;;;0.00;0.00;;;11.80;99.90;;;;;;5015598;28;20300;-66
2022/09/12 05:25:53;;;;;;;0.00;0.00;;;11.90;99.90;;;;;;5015508;28;20309;-66
2022/09/12 05:28:20;;;;;;;0.00;0.00;;;11.90;99.90;;;;;;5015622;28;20266;-66
2022/09/12 05:30:46;;;;;;;0.00;0.00;;;11.90;99.90;;;;;;5015349;28;20183;-67
2022/09/12 05:33:12;;;;;;;0.10;0.10;;;11.90;99.90;;;;;;5015445;28;20320;-67
2022/09/12 05:35:39;;;;;;;0.00;0.00;;;11.90;99.90;;;;;;5015331;28;20642;-66
2022/09/12 05:38:05;;;;;;;0.00;0.00;;;12.00;99.90;;;;;;5015321;28;20660;-66
2022/09/12 05:40:30;;;;;;;0.00;0.00;;;12.00;99.90;;;;;;5015334;28;20258;-66
2022/09/12 05:42:56;;;;;;;0.00;0.00;;;12.00;99.90;;;;;;5015253;28;20181;-67
2022/09/12 05:45:22;;;;;;;0.00;0.00;;;12.10;99.90;;;;;;5015116;28;20531;-66
2022/09/12 05:47:48;;;;;;;0.15;0.15;;;12.10;99.90;;;;;;5015067;28;20182;-67
2022/09/12 05:50:13;;;;;;;0.00;0.00;;;12.10;99.90;;;;;;5015214;28;20178;-66
2022/09/12 05:52:39;;;;;;;0.00;0.00;;;12.20;99.90;;;;;;5015081;28;20179;-67
2022/09/12 05:55:05;;;;;;;0.00;0.00;;;12.20;99.90;;;;;;5014987;28;20198;-66
2022/09/12 05:57:30;;;;;;;0.00;0.00;;;12.30;99.90;;;;;;5015117;28;20193;-66
2022/09/12 05:59:56;;;;;;;0.00;0.00;;;12.40;99.90;;;;;;5013747;28;20701;-67
2022/09/12 06:02:22;;;;;;;0.00;0.00;;;12.50;99.90;;;;;;5014910;28;20644;-66
2022/09/12 06:04:47;;;;;;;0.10;0.10;;;12.70;99.90;;;;;;5014875;28;20174;-66
2022/09/12 06:07:13;;;;;;;0.00;0.00;;;12.90;99.90;;;;;;5014915;28;20241;-66
2022/09/12 06:09:39;;;;;;;0.00;0.00;;;13.30;99.90;;;;;;5017867;28;20182;-66
2022/09/12 06:12:05;;;;;;;0.00;0.00;;;13.70;99.90;;;;;;5034270;28;20714;-66
2022/09/12 06:14:31;;;;;;;0.00;0.00;;;14.30;99.90;;;;;;5034438;28;20185;-66
2022/09/12 06:16:57;;;;;;;0.00;0.00;;;14.90;99.90;;;;;;5033468;28;20225;-66
2022/09/12 06:19:23;;;;;;;0.00;0.00;;;15.40;99.90;;;;;;5014645;28;20214;-66
2022/09/12 06:21:50;;;;;;;0.00;0.00;;;16.10;99.90;;;;;;5014609;28;20194;-66
2022/09/12 06:24:17;;;;;;;0.00;0.00;;;16.70;99.90;;;;;;5014572;28;20815;-66
2022/09/12 06:26:42;;;;;;;0.00;0.00;;;17.30;99.90;;;;;;5013120;28;20678;-66
2022/09/12 06:29:10;;;;;;;0.08;0.08;;;17.90;99.90;;;;;;5014473;28;20182;-66
2022/09/12 06:31:37;;;;;;;0.00;0.00;;;18.40;99.90;;;;;;5014282;28;20535;-66
2022/09/12 06:34:05;;;;;;;0.00;0.00;;;18.90;99.90;;;;;;5014497;28;20182;-66
2022/09/12 06:36:34;;;;;;;0.00;0.00;;;19.40;99.90;;;;;;5014219;28;20535;-66
2022/09/12 06:39:06;;;;;;;0.00;0.00;;;19.90;99.90;;;;;;5029302;28;20548;-66
2022/09/12 06:41:32;;;;;;;0.00;0.00;;;20.40;99.90;;;;;;5014121;28;20178;-66
2022/09/12 06:43:59;;;;;;;0.00;0.00;;;20.80;99.90;;;;;;5014212;28;20262;-66
2022/09/12 06:46:25;;;;;;;0.00;0.00;;;21.20;99.90;;;;;;5014091;28;20217;-66
2022/09/12 06:48:51;;;;;;;0.10;0.10;;;21.60;99.90;;;;;;5014215;28;20189;-66
2022/09/12 06:51:18;;;;;;;0.00;0.00;;;21.90;99.70;;;;;;5013922;28;20174;-66
2022/09/12 06:53:45;;;;;;;0.10;0.10;;;22.20;99.00;;;;;;5013957;28;20167;-66
2022/09/12 06:56:13;;;;;;;0.10;0.10;;;22.60;98.50;;;;;;5013966;28;20175;-66
2022/09/12 06:58:40;;;;;;;0.00;0.00;;;23.00;97.30;;;;;;5013862;28;20183;-67
2022/09/12 07:01:08;;;;;;;0.00;0.00;;;23.40;96.40;;;;;;5014029;28;20213;-67
2022/09/12 07:03:36;;;;;;;0.10;0.10;;;23.70;95.80;;;;;;5013579;28;20636;-67
2022/09/12 07:06:03;;;;;;;0.00;0.00;;;23.90;95.20;;;;;;5013782;28;20233;-67
2022/09/12 07:08:30;;;;;;;0.00;0.00;;;24.10;94.70;;;;;;5013920;28;20575;-66
2022/09/12 07:10:57;;;;;;;0.00;0.00;;;24.40;93.70;;;;;;5027384;28;20182;-67
2022/09/12 07:13:23;;;;;;;0.05;0.05;;;24.70;93.60;;;;;;5033342;28;20209;-67
2022/09/12 07:15:50;;;;;;;0.03;0.00;;;25.00;92.80;;;;;;5033388;28;20209;-66
2022/09/12 07:18:16;;;;;;;0.08;0.08;;;25.30;91.70;;;;;;5021481;28;20175;-67
2022/09/12 07:20:41;;;;;;;0.08;0.03;;;25.70;90.50;;;;;;5013324;28;20597;-64
2022/09/12 07:23:07;;;;;;;0.00;0.00;;;26.00;89.70;;;;;;5013377;28;20185;-64
2022/09/12 07:25:32;;;;;;;0.00;0.00;;;26.40;86.80;;;;;;5012539;28;20203;-64
2022/09/12 07:27:58;;;;;;;0.00;0.00;;;26.80;83.50;;;;;;5013441;28;20183;-64
2022/09/12 07:30:24;;;;;;;0.00;0.00;;;27.00;82.50;;;;;;5013249;28;20654;-64
2022/09/12 07:32:53;;;;;;;0.30;0.30;;;27.30;80.20;;;;;;5013336;28;20647;-64
2022/09/12 07:35:20;;;;;;;0.20;0.20;;;27.30;79.30;;;;;;5013323;28;20182;-64
2022/09/12 07:37:46;;;;;;;0.00;0.00;;;27.20;78.00;;;;;;5013056;28;20662;-64
2022/09/12 07:40:11;;;;;;;0.00;0.00;;;27.20;78.50;;;;;;5013220;28;20270;-64
2022/09/12 07:42:37;;;;;;;0.00;0.00;;;27.40;78.70;;;;;;5012895;28;20636;-64
2022/09/12 07:45:03;;;;;;;0.10;0.10;;;27.80;76.90;;;;;;5013021;28;20182;-64
2022/09/12 07:47:28;;;;;;;0.05;0.00;;;28.00;74.20;;;;;;5012912;28;20214;-65
2022/09/12 07:49:54;;;;;;;0.05;0.05;;;28.20;74.50;;;;;;5012952;28;20230;-64
2022/09/12 07:52:19;;;;;;;0.40;0.15;;;28.50;74.30;;;;;;5013031;28;20178;-65
2022/09/12 07:54:45;;;;;;;0.05;0.05;;;28.80;71.20;;;;;;5012904;28;20218;-64
2022/09/12 07:57:10;;;;;;;0.00;0.00;;;29.10;70.50;;;;;;5012831;28;20171;-65
2022/09/12 07:59:41;;;;;;;0.00;0.00;;;29.40;69.80;;;;;;5012679;28;20187;-64
2022/09/12 08:02:12;;;;;;;0.10;0.10;;;29.70;67.60;;;;;;5012721;28;20237;-64
2022/09/12 08:04:38;;;;;;;0.00;0.00;;;29.90;66.60;;;;;;5012746;28;20178;-65
2022/09/12 08:07:05;;;;;;;0.00;0.00;;;30.00;65.00;;;;;;5012475;28;20313;-64
2022/09/12 08:09:31;;;;;;;0.20;0.20;;;30.00;64.20;;;;;;5014687;28;20179;-64
2022/09/12 08:11:56;;;;;;;0.00;0.00;;;30.10;63.90;;;;;;5032187;28;20235;-64
2022/09/12 08:14:22;;;;;;;0.10;0.05;;;30.30;62.00;;;;;;5032271;28;20185;-64
2022/09/12 08:16:47;;;;;;;0.10;0.10;;;30.40;62.20;;;;;;5032258;28;20174;-65
2022/09/12 08:19:13;;;;;;;0.00;0.00;;;30.50;61.10;;;;;;5012685;28;20181;-65
2022/09/12 08:21:38;;;;;;;0.05;0.05;;;30.50;61.50;;;;;;5012319;28;20179;-65
2022/09/12 08:24:05;;;;;;;0.10;0.10;;;30.50;59.30;;;;;;5012464;28;20190;-65
2022/09/12 08:26:32;;;;;;;0.08;0.08;;;30.30;59.80;;;;;;5012264;28;20587;-65
2022/09/12 08:28:59;;;;;;;0.05;0.05;;;30.10;62.00;;;;;;5012258;28;20534;-65
2022/09/12 08:31:26;;;;;;;0.00;0.00;;;30.10;59.60;;;;;;5012269;28;20217;-64
2022/09/12 08:33:54;;;;;;;0.00;0.00;;;30.00;59.80;;;;;;5012427;28;20179;-65
2022/09/12 08:36:24;;;;;;;0.00;0.00;;;30.00;59.70;;;;;;5011426;28;20195;-65
2022/09/12 08:38:54;;;;;;;0.00;0.00;;;30.10;60.00;;;;;;5012274;28;20230;-65
2022/09/12 08:41:27;;;;;;;0.08;0.08;;;30.10;60.00;;;;;;5012225;28;20221;-65
2022/09/12 08:44:16;;;;;;;0.25;0.25;;;30.20;59.50;;;;;;5012325;28;20371;-65
2022/09/12 08:46:48;;;;;;;0.00;0.00;;;30.30;60.30;;;;;;5012042;28;20313;-65
2022/09/12 08:49:34;;;;;;;0.00;0.00;;;30.40;59.90;;;;;;5012074;28;20182;-65
2022/09/12 08:52:14;;;;;;;0.13;0.13;;;30.50;59.70;;;;;;5012204;28;20179;-65
2022/09/12 08:54:43;;;;;;;0.05;0.05;;;30.50;60.00;;;;;;5012069;28;20257;-65
2022/09/12 08:57:10;;;;;;;0.17;0.08;;;30.20;59.00;;;;;;5012133;28;20179;-64
2022/09/12 08:59:43;;;;;;;0.00;0.00;;;30.10;59.70;;;;;;5010672;28;20278;-65
2022/09/12 09:02:34;;;;;;;0.15;0.15;;;30.10;59.00;;;;;;5011940;28;20227;-65
2022/09/12 09:05:24;;;;;;;0.20;0.10;;;30.00;59.70;;;;;;5013636;28;20238;-64
2022/09/12 09:08:40;;;;;;;0.00;0.00;;;29.90;60.00;;;;;;5012333;28;20530;-65
2022/09/12 09:11:19;;;;;;;0.00;0.00;;;29.80;59.20;;;;;;5030316;28;20198;-64
2022/09/12 09:16:50;;;;;;;0.20;0.20;;;29.40;62.50;;;;;;5031600;28;20529;-65
2022/09/12 09:19:20;;;;;;;0.00;0.00;;;29.60;59.60;;;;;;5011674;28;20623;-64
2022/09/12 09:21:51;;;;;;;0.00;0.00;;;29.70;59.10;;;;;;5011810;28;20198;-64
2022/09/12 09:24:21;;;;;;;0.10;0.10;;;29.80;60.30;;;;;;5011721;28;20641;-64
2022/09/12 09:27:01;;;;;;;0.00;0.00;;;29.60;60.70;;;;;;5011699;28;20293;-64
2022/09/12 09:29:33;;;;;;;0.00;0.00;;;29.50;60.10;;;;;;5011752;28;20189;-65
2022/09/12 09:32:02;;;;;;;0.10;0.10;;;29.60;61.30;;;;;;5011884;28;20594;-65
2022/09/12 09:34:30;;;;;;;0.10;0.10;;;29.80;62.60;;;;;;5011646;28;20175;-64
2022/09/12 09:37:12;;;;;;;0.00;0.00;;;29.60;59.00;;;;;;5011728;28;20241;-65
2022/09/12 09:40:00;;;;;;;0.38;0.10;;;29.40;59.40;;;;;;5011733;28;20542;-65
2022/09/12 09:42:35;;;;;;;0.00;0.00;;;29.30;58.30;;;;;;5011707;28;20171;-65
2022/09/12 09:45:10;;;;;;;0.00;0.00;;;29.10;58.70;;;;;;5011675;28;20178;-65
2022/09/12 09:47:36;;;;;;;0.00;0.00;;;29.10;59.30;;;;;;5012723;28;20605;-64
2022/09/12 09:50:02;;;;;;;0.00;0.00;;;29.10;58.30;;;;;;5015326;28;20201;-65
2022/09/12 09:52:30;;;;;;;0.17;0.17;;;29.30;58.60;;;;;;5015149;28;20171;-64
2022/09/12 09:54:59;;;;;;;0.05;0.03;;;29.50;58.00;;;;;;5015250;28;20179;-65
2022/09/12 09:57:33;;;;;;;0.13;0.10;;;29.60;57.90;;;;;;5015105;28;20179;-65
2022/09/12 10:00:27;;;;;;;0.10;0.10;;;29.50;57.00;;;;;;5015033;28;20277;-65
2022/09/12 10:03:00;;;;;;;0.00;0.00;;;29.10;57.20;;;;;;5014799;28;20823;-65
2022/09/12 10:05:27;;;;;;;0.00;0.00;;;29.10;58.90;;;;;;5014848;28;20174;-65
2022/09/12 10:07:53;;;;;;;0.03;0.03;;;29.30;59.20;;;;;;5014767;28;20197;-65
2022/09/12 10:10:21;;;;;;;0.10;0.10;;;29.20;58.20;;;;;;5023429;28;20653;-67
2022/09/12 10:12:47;;;;;;;0.05;0.05;;;29.20;56.90;;;;;;5034449;28;20182;-67
2022/09/12 10:15:28;;;;;;;0.00;0.00;;;29.10;58.50;;;;;;5034424;28;20228;-67
2022/09/12 10:17:54;;;;;;;0.00;0.00;;;29.20;56.70;;;;;;5025714;28;20175;-67
2022/09/12 10:20:32;;;;;;;0.00;0.00;;;29.30;56.30;;;;;;5014600;28;20195;-66
2022/09/12 10:23:00;;;;;;;0.00;0.00;;;29.40;56.50;;;;;;5014444;28;20174;-66
2022/09/12 10:25:26;;;;;;;0.15;0.15;;;29.60;56.70;;;;;;5014477;28;20371;-66
2022/09/12 10:27:58;;;;;;;0.00;0.00;;;29.90;57.40;;;;;;5014520;28;20222;-67
2022/09/12 10:30:27;;;;;;;0.00;0.00;;;29.90;55.90;;;;;;5014445;28;20167;-66
2022/09/12 10:32:56;;;;;;;0.00;0.00;;;29.70;53.60;;;;;;5014335;28;20191;-65
2022/09/12 10:35:26;;;;;;;0.00;0.00;;;29.40;54.70;;;;;;5014355;28;20178;-66
2022/09/12 10:38:06;;;;;;;0.00;0.00;;;29.10;54.30;;;;;;5014354;28;20226;-66
2022/09/12 10:40:38;;;;;;;0.00;0.00;;;29.10;55.00;;;;;;5014122;28;20759;-66
2022/09/12 10:43:25;;;;;;;0.00;0.00;;;29.10;54.60;;;;;;5014446;28;20171;-66
2022/09/12 10:45:55;;;;;;;0.00;0.00;;;29.30;56.00;;;;;;5014044;28;20670;-66
2022/09/12 10:48:31;;;;;;;0.00;0.00;;;29.40;54.50;;;;;;5014131;28;20179;-66
2022/09/12 10:50:58;;;;;;;0.00;0.00;;;29.50;53.20;;;;;;5014008;28;20577;-67
2022/09/12 10:53:25;;;;;;;0.00;0.00;;;29.50;52.50;;;;;;5013976;28;20189;-67
2022/09/12 10:56:08;;;;;;;0.00;0.00;;;29.50;52.90;;;;;;5013992;28;20596;-66
2022/09/12 10:59:01;;;;;;;0.00;0.00;;;29.40;52.50;;;;;;5013090;28;20258;-66
2022/09/12 11:01:43;;;;;;;0.10;0.10;;;29.40;52.40;;;;;;5013882;28;20175;-66
2022/09/12 11:04:21;;;;;;;0.10;0.10;;;29.40;52.40;;;;;;5013815;28;20194;-66
2022/09/12 11:07:31;;;;;;;0.10;0.10;;;29.30;52.80;;;;;;5013686;28;20214;-66
2022/09/12 11:10:18;;;;;;;0.10;0.10;;;29.30;53.20;;;;;;5019197;28;20204;-66
2022/09/12 11:13:01;;;;;;;0.00;0.00;;;29.50;53.30;;;;;;5033339;28;20190;-67
2022/09/12 11:16:08;;;;;;;0.00;0.00;;;29.70;53.60;;;;;;5033500;28;20701;-66
2022/09/12 11:18:48;;;;;;;0.10;0.10;;;29.70;52.20;;;;;;5019068;28;20190;-67
2022/09/12 11:21:26;;;;;;;0.20;0.00;;;29.60;52.70;;;;;;5013509;28;20182;-67
2022/09/12 11:24:20;;;;;;;0.05;0.00;;;29.60;52.60;;;;;;5013432;28;20187;-66
2022/09/12 11:27:05;;;;;;;0.00;0.00;;;29.60;52.00;;;;;;5013399;28;20218;-67
2022/09/12 11:30:09;;;;;;;0.00;0.00;;;29.60;51.50;;;;;;5013316;28;20527;-67
2022/09/12 11:32:44;;;;;;;0.00;0.00;;;29.40;51.30;;;;;;5013220;28;20208;-67
2022/09/12 11:35:43;;;;;;;0.00;0.00;;;29.20;49.50;;;;;;5030877;28;20587;-67
2022/09/12 11:38:42;;;;;;;0.00;0.00;;;29.20;51.80;;;;;;5033809;28;20198;-67
2022/09/12 11:41:23;;;;;;;0.00;0.00;;;29.20;52.00;;;;;;5033722;28;20190;-68
2022/09/12 11:43:59;;;;;;;0.17;0.15;;;29.40;50.70;;;;;;5040944;28;20181;-67
2022/09/12 11:46:35;;;;;;;0.03;0.03;;;29.70;50.20;;;;;;5031590;28;20220;-66
2022/09/12 11:49:12;;;;;;;0.00;0.00;;;30.00;51.20;;;;;;5032658;28;20293;-65
2022/09/12 11:52:03;;;;;;;0.00;0.00;;;30.20;50.30;;;;;;5033733;28;20209;-66
2022/09/12 11:55:10;;;;;;;0.00;0.00;;;30.10;51.40;;;;;;5032602;28;20174;-65
2022/09/12 11:57:44;;;;;;;0.00;0.00;;;30.10;48.90;;;;;;5010289;28;20206;-65
2022/09/12 12:00:36;;;;;;;0.00;0.00;;;30.10;48.50;;;;;;5030236;28;20232;-65
2022/09/12 12:03:37;;;;;;;0.00;0.00;;;30.10;49.60;;;;;;5032437;28;20226;-65
2022/09/12 12:06:10;;;;;;;0.20;0.00;;;30.10;49.00;;;;;;5026759;28;20234;-65
2022/09/12 12:08:41;;;;;;;0.00;0.00;;;30.20;48.00;;;;;;5032277;28;20176;-65
2022/09/12 12:11:08;;;;;;;0.08;0.08;;;30.10;49.50;;;;;;5032383;28;20198;-65
2022/09/12 12:13:50;;;;;;;0.00;0.00;;;29.50;48.00;;;;;;5032231;28;20178;-65
2022/09/12 12:16:31;;;;;;;0.00;0.00;;;29.10;47.50;;;;;;5031051;28;20181;-65
2022/09/12 12:19:02;;;;;;;0.00;0.00;;;29.00;49.10;;;;;;5015036;28;20178;-65
2022/09/12 12:21:28;;;;;;;0.00;0.00;;;29.00;48.50;;;;;;5012561;28;20177;-65
2022/09/12 12:24:08;;;;;;;0.00;0.00;;;29.10;49.00;;;;;;5015641;28;20175;-65
2022/09/12 12:26:40;;;;;;;0.00;0.00;;;29.20;50.10;;;;;;5042846;28;20221;-65
2022/09/12 12:29:18;;;;;;;0.10;0.10;;;29.10;49.60;;;;;;5031837;28;20189;-66
2022/09/12 12:32:02;;;;;;;1.07;0.37;;;29.00;50.00;;;;;;5011220;28;20638;-67
2022/09/12 12:34:29;;;;;;;0.20;0.20;;;29.10;50.50;;;;;;5017374;28;20455;-64
2022/09/12 12:36:56;;;;;;;0.10;0.10;;;29.30;48.70;;;;;;5042905;28;20178;-65
2022/09/12 12:39:30;;;;;;;0.00;0.00;;;29.10;48.20;;;;;;5032096;28;20204;-65
2022/09/12 12:41:56;;;;;;;0.00;0.00;;;29.10;48.90;;;;;;5033226;28;20222;-65
2022/09/12 12:44:46;;;;;;;0.00;0.00;;;29.00;50.20;;;;;;5033766;28;20186;-65
2022/09/12 12:47:22;;;;;;;0.00;0.00;;;29.10;48.70;;;;;;5034226;28;20221;-65
2022/09/12 12:49:57;;;;;;;0.00;0.00;;;29.20;47.50;;;;;;5051773;28;20188;-65
2022/09/12 12:52:27;;;;;;;0.00;0.00;;;29.10;47.30;;;;;;5046492;28;20512;-65
2022/09/12 12:54:59;;;;;;;0.00;0.00;;;28.80;48.20;;;;;;5031760;28;20213;-64
2022/09/12 12:57:34;;;;;;;0.00;0.00;;;28.70;48.70;;;;;;5032789;28;20233;-64
2022/09/12 13:00:07;;;;;;;0.00;0.00;;;28.70;48.90;;;;;;5031764;28;20227;-64
2022/09/12 13:02:47;;;;;;;0.00;0.00;;;28.90;49.00;;;;;;5036405;28;20217;-66
2022/09/12 13:05:19;;;;;;;0.00;0.00;;;29.00;49.80;;;;;;5050365;28;20185;-66
2022/09/12 13:07:46;;;;;;;0.00;0.00;;;29.10;48.90;;;;;;5045934;28;20275;-64
2022/09/12 13:10:22;;;;;;;0.00;0.00;;;29.20;47.40;;;;;;5041048;28;20513;-64
2022/09/12 13:12:50;;;;;;;0.20;0.20;;;29.30;48.40;;;;;;5031650;28;20174;-63
2022/09/12 13:15:46;;;;;;;0.10;0.10;;;29.30;48.20;;;;;;5031396;28;20182;-64
2022/09/12 13:18:17;;;;;;;0.00;0.00;;;29.30;49.30;;;;;;5031651;28;20227;-64